Time;durP1;ratioP1;P1;durP2;ratioP2;P2;SDS_P1;SDS_P2;PMS_P1;PMS_P2;Temp;Humidity;BMP_temperature;BMP_pressure;BME280_temperature;BME280_humidity;BME280_pressure;Samples;Min_cycle;Max_cycle;Signal;HPM_P1;HPM_P2
2023/08/09 00:00:45;;;;;;;;;;;;;;;23.48;46.58;101156.28;5046655;28;19957;-71
2023/08/09 00:03:10;;;;;;;;;;;;;;;23.47;46.45;101146.66;5050255;28;20144;-71
2023/08/09 00:05:35;;;;;;;;;;;;;;;23.49;46.44;101157.09;5051557;28;20035;-72
2023/08/09 00:08:01;;;;;;;;;;;;;;;23.48;46.32;101147.47;5049223;28;20114;-72
2023/08/09 00:10:26;;;;;;;;;;;;;;;23.47;46.38;101154.63;5055548;28;20043;-72
2023/08/09 00:12:52;;;;;;;;;;;;;;;23.43;46.38;101153.38;5051057;28;19951;-74
2023/08/09 00:15:18;;;;;;;;;;;;;;;23.46;46.55;101158.31;5055122;28;19997;-74
2023/08/09 00:17:43;;;;;;;;;;;;;;;23.41;46.39;101155.44;5051832;28;20025;-75
2023/08/09 00:20:09;;;;;;;;;;;;;;;23.45;46.43;101154.00;5050373;28;20450;-74
2023/08/09 00:22:34;;;;;;;;;;;;;;;23.48;46.26;101158.94;5050078;28;19934;-74
2023/08/09 00:25:00;;;;;;;;;;;;;;;23.47;46.17;101151.97;5056956;28;19931;-74
2023/08/09 00:27:26;;;;;;;;;;;;;;;23.46;46.20;101154.84;5050899;28;19932;-74
2023/08/09 00:29:51;;;;;;;;;;;;;;;23.44;46.52;101156.88;5051531;28;19937;-74
2023/08/09 00:32:16;;;;;;;;;;;;;;;23.47;46.24;101161.78;5050506;28;19957;-75
2023/08/09 00:34:43;;;;;;;;;;;;;;;23.44;46.41;101159.53;5053815;28;19933;-74
2023/08/09 00:37:08;;;;;;;;;;;;;;;23.42;46.28;101159.72;5051487;28;19984;-74
2023/08/09 00:39:34;;;;;;;;;;;;;;;23.46;46.34;101165.47;5048257;28;19938;-74
2023/08/09 00:42:00;;;;;;;;;;;;;;;23.44;46.41;101160.34;5055725;28;19988;-71
2023/08/09 00:44:26;;;;;;;;;;;;;;;23.44;46.59;101172.81;5037054;28;20396;-73
2023/08/09 00:46:51;;;;;;;;;;;;;;;23.45;46.41;101169.13;5055388;28;19936;-72
2023/08/09 00:49:17;;;;;;;;;;;;;;;23.43;46.58;101166.69;5049101;28;20921;-72
2023/08/09 00:51:42;;;;;;;;;;;;;;;23.42;46.52;101162.38;5044823;28;19981;-74
2023/08/09 00:54:08;;;;;;;;;;;;;;;23.39;46.39;101164.63;5051911;28;19939;-74
2023/08/09 00:56:35;;;;;;;;;;;;;;;23.38;46.65;101171.78;5047496;28;19945;-74
2023/08/09 00:59:01;;;;;;;;;;;;;;;23.37;46.66;101171.97;5054962;28;19954;-74
2023/08/09 01:01:26;;;;;;;;;;;;;;;23.38;46.56;101165.63;5048814;28;20447;-74
2023/08/09 01:03:52;;;;;;;;;;;;;;;23.38;46.66;101174.44;5048521;28;19984;-74
2023/08/09 01:06:26;;;;;;;;;;;;;;;23.39;46.55;101173.41;5082734;28;20328;-74
2023/08/09 01:08:52;;;;;;;;;;;;;;;23.37;46.34;101172.78;5051366;28;19973;-74
2023/08/09 01:11:26;;;;;;;;;;;;;;;23.41;46.63;101175.88;5044350;28;20022;-74
2023/08/09 01:13:53;;;;;;;;;;;;;;;23.40;46.41;101177.72;5050777;28;19938;-74
2023/08/09 01:16:20;;;;;;;;;;;;;;;23.40;46.37;101183.03;5051199;28;19937;-74
2023/08/09 01:18:47;;;;;;;;;;;;;;;23.38;46.28;101178.91;5051409;28;20054;-73
2023/08/09 01:21:14;;;;;;;;;;;;;;;23.36;46.44;101173.81;5048719;28;19943;-73
2023/08/09 01:23:40;;;;;;;;;;;;;;;23.35;46.40;101174.81;5046891;28;19966;-73
2023/08/09 01:26:05;;;;;;;;;;;;;;;23.35;46.57;101174.00;5051470;28;20399;-73
2023/08/09 01:28:31;;;;;;;;;;;;;;;23.41;46.23;101186.50;5047764;28;19934;-73
2023/08/09 01:30:57;;;;;;;;;;;;;;;23.35;46.68;101179.31;5047525;28;19951;-73
2023/08/09 01:33:22;;;;;;;;;;;;;;;23.37;46.37;101183.41;5051187;28;20083;-73
2023/08/09 01:35:51;;;;;;;;;;;;;;;23.36;46.38;101191.59;5052431;28;19941;-73
2023/08/09 01:38:20;;;;;;;;;;;;;;;23.36;46.48;101187.09;5077652;27;20009;-73
2023/08/09 01:40:46;;;;;;;;;;;;;;;23.39;46.23;101192.00;5079100;28;19934;-74
2023/08/09 01:43:11;;;;;;;;;;;;;;;23.31;46.56;101189.47;5048126;28;19970;-75
2023/08/09 01:45:37;;;;;;;;;;;;;;;23.34;46.36;101189.13;5046382;28;20585;-75
2023/08/09 01:48:02;;;;;;;;;;;;;;;23.40;46.47;101195.50;5090452;27;19941;-74
2023/08/09 01:50:28;;;;;;;;;;;;;;;23.38;46.39;101189.56;5051713;28;19934;-74
2023/08/09 01:52:58;;;;;;;;;;;;;;;23.35;46.42;101188.09;5085701;27;19954;-74
2023/08/09 01:55:25;;;;;;;;;;;;;;;23.34;46.48;101190.94;5051367;28;19935;-74
2023/08/09 01:57:51;;;;;;;;;;;;;;;23.35;46.65;101192.59;5053334;28;19931;-74
2023/08/09 02:00:19;;;;;;;;;;;;;;;23.32;46.71;101204.41;5050555;28;20734;-75
2023/08/09 02:02:48;;;;;;;;;;;;;;;23.33;46.41;101206.06;5051038;28;20378;-75
2023/08/09 02:05:13;;;;;;;;;;;;;;;23.30;46.80;101209.09;5051993;28;19940;-75
2023/08/09 02:07:39;;;;;;;;;;;;;;;23.33;46.54;101207.88;5046666;28;19949;-73
2023/08/09 02:10:06;;;;;;;;;;;;;;;23.31;46.71;101209.91;5045443;28;19973;-72
2023/08/09 02:12:31;;;;;;;;;;;;;;;23.28;46.77;101210.31;5048725;28;20016;-72
2023/08/09 02:14:56;;;;;;;;;;;;;;;23.31;46.60;101213.41;5044058;28;19983;-75
2023/08/09 02:17:22;;;;;;;;;;;;;;;23.33;46.47;101208.72;5052013;28;19942;-75
2023/08/09 02:19:48;;;;;;;;;;;;;;;23.32;46.38;101215.03;5074235;27;19933;-75
2023/08/09 02:22:15;;;;;;;;;;;;;;;23.32;46.64;101219.53;5048854;28;19984;-75
2023/08/09 02:24:41;;;;;;;;;;;;;;;23.31;46.61;101223.22;5079731;27;19934;-76
2023/08/09 02:27:06;;;;;;;;;;;;;;;23.31;46.49;101225.88;5052234;28;19947;-75
2023/08/09 02:29:31;;;;;;;;;;;;;;;23.29;46.65;101231.38;5046681;28;19996;-75
2023/08/09 02:31:58;;;;;;;;;;;;;;;23.31;46.48;101229.34;5047210;28;19955;-74
2023/08/09 02:34:24;;;;;;;;;;;;;;;23.31;46.53;101232.00;5051707;28;19934;-74
2023/08/09 02:36:49;;;;;;;;;;;;;;;23.30;46.49;101230.34;5046925;28;20559;-74
2023/08/09 02:39:14;;;;;;;;;;;;;;;23.28;46.58;101231.56;5048629;28;20724;-74
2023/08/09 02:41:42;;;;;;;;;;;;;;;23.29;46.64;101230.56;5052300;28;19947;-74
2023/08/09 02:44:08;;;;;;;;;;;;;;;23.29;46.61;101230.56;5045760;28;20804;-74
2023/08/09 02:46:33;;;;;;;;;;;;;;;23.32;46.51;101233.66;5076544;28;19955;-74
2023/08/09 02:48:58;;;;;;;;;;;;;;;23.28;46.35;101229.72;5044615;28;19932;-74
2023/08/09 02:51:24;;;;;;;;;;;;;;;23.27;46.56;101232.59;5081133;28;19993;-74
2023/08/09 02:54:03;;;;;;;;;;;;;;;23.27;46.69;101232.59;5050049;28;19948;-73
2023/08/09 02:56:29;;;;;;;;;;;;;;;23.22;46.57;101238.50;5053821;28;19969;-74
2023/08/09 02:58:55;;;;;;;;;;;;;;;23.25;46.38;101237.28;5082051;28;20691;-74
2023/08/09 03:01:24;;;;;;;;;;;;;;;23.25;46.66;101238.09;5045986;28;19959;-74
2023/08/09 03:03:51;;;;;;;;;;;;;;;23.24;46.62;101235.63;5083007;28;19934;-74
2023/08/09 03:06:17;;;;;;;;;;;;;;;23.23;46.64;101242.78;5045305;28;19937;-74
2023/08/09 03:08:44;;;;;;;;;;;;;;;23.22;46.57;101235.81;5048035;28;19973;-73
2023/08/09 03:11:09;;;;;;;;;;;;;;;23.26;46.45;101241.56;5064544;28;20108;-74
2023/08/09 03:13:34;;;;;;;;;;;;;;;23.25;46.65;101239.94;5063340;28;20050;-74
2023/08/09 03:16:00;;;;;;;;;;;;;;;23.26;46.39;101239.75;5049975;28;19933;-74
2023/08/09 03:18:25;;;;;;;;;;;;;;;23.24;46.51;101248.91;5045620;28;19941;-74
2023/08/09 03:20:52;;;;;;;;;;;;;;;23.26;46.60;101247.72;5058432;28;19946;-74
2023/08/09 03:23:18;;;;;;;;;;;;;;;23.25;46.61;101245.25;5055045;28;19984;-73
2023/08/09 03:25:44;;;;;;;;;;;;;;;23.22;46.74;101251.78;5052252;28;19928;-73
2023/08/09 03:28:11;;;;;;;;;;;;;;;23.23;46.50;101253.41;5081623;28;20292;-73
2023/08/09 03:30:37;;;;;;;;;;;;;;;23.24;46.60;101257.72;5050272;28;19930;-74
2023/08/09 03:33:02;;;;;;;;;;;;;;;23.20;46.56;101257.28;5080932;28;19960;-73
2023/08/09 03:35:29;;;;;;;;;;;;;;;23.24;46.61;101255.06;5045110;28;19939;-73
2023/08/09 03:37:54;;;;;;;;;;;;;;;23.24;46.62;101262.19;5049650;28;19931;-74
2023/08/09 03:40:20;;;;;;;;;;;;;;;23.19;46.65;101263.59;5048517;28;19939;-74
2023/08/09 03:42:45;;;;;;;;;;;;;;;23.23;46.55;101258.72;5054095;28;19945;-74
2023/08/09 03:45:11;;;;;;;;;;;;;;;23.23;46.42;101263.22;5079597;27;19961;-73
2023/08/09 03:47:37;;;;;;;;;;;;;;;23.21;46.52;101264.22;5063919;28;20037;-74
2023/08/09 03:50:05;;;;;;;;;;;;;;;23.21;46.52;101274.88;5052112;28;20161;-74
2023/08/09 03:52:31;;;;;;;;;;;;;;;23.20;46.54;101270.56;5082808;28;20027;-74
2023/08/09 03:54:56;;;;;;;;;;;;;;;23.19;46.73;101278.72;5052745;28;19989;-74
2023/08/09 03:57:22;;;;;;;;;;;;;;;23.23;46.49;101282.63;5049328;28;20021;-74
2023/08/09 03:59:49;;;;;;;;;;;;;;;23.21;46.65;101289.97;5051659;28;19965;-74
2023/08/09 04:02:14;;;;;;;;;;;;;;;23.21;46.49;101284.66;5050699;28;19952;-74
2023/08/09 04:04:41;;;;;;;;;;;;;;;23.20;46.43;101296.31;5080785;27;20208;-74
2023/08/09 04:07:07;;;;;;;;;;;;;;;23.17;46.65;101296.69;5045117;28;20624;-74
2023/08/09 04:09:32;;;;;;;;;;;;;;;23.20;46.45;101301.63;5081628;27;20380;-74
2023/08/09 04:11:59;;;;;;;;;;;;;;;23.17;46.69;101302.84;5053547;28;19960;-74
2023/08/09 04:14:24;;;;;;;;;;;;;;;23.15;46.52;101298.69;5067917;28;20695;-73
2023/08/09 04:16:50;;;;;;;;;;;;;;;23.17;46.53;101302.00;5051238;28;19933;-74
2023/08/09 04:19:16;;;;;;;;;;;;;;;23.14;46.61;101297.06;5049306;28;20033;-72
2023/08/09 04:21:42;;;;;;;;;;;;;;;23.18;46.56;101308.97;5046609;28;19935;-73
2023/08/09 04:24:08;;;;;;;;;;;;;;;23.18;46.38;101301.00;5052937;28;19934;-71
2023/08/09 04:26:33;;;;;;;;;;;;;;;23.15;46.67;101307.47;5051091;28;19935;-72
2023/08/09 04:28:58;;;;;;;;;;;;;;;23.17;46.57;101305.50;5050060;28;19938;-72
2023/08/09 04:31:24;;;;;;;;;;;;;;;23.15;46.55;101310.13;5051301;28;19934;-72
2023/08/09 04:33:49;;;;;;;;;;;;;;;23.14;46.35;101307.69;5050589;28;20415;-72
2023/08/09 04:36:18;;;;;;;;;;;;;;;23.15;46.56;101317.28;5047891;28;19940;-72
2023/08/09 04:38:43;;;;;;;;;;;;;;;23.16;46.65;101310.97;5054615;28;19981;-72
2023/08/09 04:41:12;;;;;;;;;;;;;;;23.14;46.64;101316.47;5055512;28;20382;-72
2023/08/09 04:43:42;;;;;;;;;;;;;;;23.16;46.44;101317.13;5052880;28;19976;-72
2023/08/09 04:46:08;;;;;;;;;;;;;;;23.12;46.48;101323.81;5048449;28;19969;-71
2023/08/09 04:48:33;;;;;;;;;;;;;;;23.12;46.47;101315.84;5050396;28;20001;-72
2023/08/09 04:50:59;;;;;;;;;;;;;;;23.12;46.49;101320.34;5047954;28;19935;-72
2023/08/09 04:53:24;;;;;;;;;;;;;;;23.11;46.44;101324.81;5050274;28;20730;-72
2023/08/09 04:55:50;;;;;;;;;;;;;;;23.15;46.46;101334.06;5052514;28;19940;-72
2023/08/09 04:58:16;;;;;;;;;;;;;;;23.13;46.26;101329.94;5052098;28;19944;-72
2023/08/09 05:00:42;;;;;;;;;;;;;;;23.12;46.55;101333.63;5049304;28;19961;-72
2023/08/09 05:03:07;;;;;;;;;;;;;;;23.11;46.67;101334.63;5046493;28;19930;-73
2023/08/09 05:05:32;;;;;;;;;;;;;;;23.03;46.64;101332.09;5052918;28;20666;-73
2023/08/09 05:07:58;;;;;;;;;;;;;;;23.11;46.73;101338.09;5048274;28;19943;-72
2023/08/09 05:10:23;;;;;;;;;;;;;;;23.10;46.52;101335.63;5048187;28;19998;-73
2023/08/09 05:12:48;;;;;;;;;;;;;;;23.08;46.56;101345.63;5057517;28;19950;-73
2023/08/09 05:15:14;;;;;;;;;;;;;;;23.12;46.61;101345.06;5055355;28;19981;-73
2023/08/09 05:17:39;;;;;;;;;;;;;;;23.11;46.65;101348.72;5053857;28;20027;-73
2023/08/09 05:20:05;;;;;;;;;;;;;;;23.13;46.50;101346.69;5056372;28;19938;-73
2023/08/09 05:22:30;;;;;;;;;;;;;;;23.10;46.56;101354.22;5054787;28;20836;-72
2023/08/09 05:24:56;;;;;;;;;;;;;;;23.09;46.53;101360.56;5049856;28;19970;-72
2023/08/09 05:27:21;;;;;;;;;;;;;;;23.11;46.51;101356.69;5051805;28;20018;-73
2023/08/09 05:29:46;;;;;;;;;;;;;;;23.11;46.40;101355.88;5052188;28;19937;-72
2023/08/09 05:32:12;;;;;;;;;;;;;;;23.11;46.62;101361.19;5047832;28;20081;-72
2023/08/09 05:34:37;;;;;;;;;;;;;;;23.10;46.44;101364.88;5048354;28;20395;-72
2023/08/09 05:37:03;;;;;;;;;;;;;;;23.17;46.51;101368.44;5046495;28;19973;-73
2023/08/09 05:39:28;;;;;;;;;;;;;;;23.10;46.52;101363.03;5056936;28;20027;-73
2023/08/09 05:41:54;;;;;;;;;;;;;;;23.11;46.39;101372.63;5051709;28;19967;-73
2023/08/09 05:44:19;;;;;;;;;;;;;;;23.08;46.64;101366.88;5045432;28;19947;-73
2023/08/09 05:46:45;;;;;;;;;;;;;;;23.09;46.35;101379.16;5050420;28;19954;-73
2023/08/09 05:49:10;;;;;;;;;;;;;;;23.10;46.49;101378.97;5049129;28;19931;-73
2023/08/09 05:51:35;;;;;;;;;;;;;;;23.09;46.56;101387.13;5055197;28;20023;-70
2023/08/09 05:54:01;;;;;;;;;;;;;;;23.11;46.52;101377.94;5048898;28;19953;-73
2023/08/09 05:56:26;;;;;;;;;;;;;;;23.10;46.26;101378.97;5048714;28;19929;-71
2023/08/09 05:58:52;;;;;;;;;;;;;;;23.18;45.93;101383.34;5048754;28;20013;-72
2023/08/09 06:01:17;;;;;;;;;;;;;;;23.08;45.49;101377.50;5046631;28;20627;-72
2023/08/09 06:03:43;;;;;;;;;;;;;;;23.08;45.09;101385.47;5051465;28;19940;-73
2023/08/09 06:06:09;;;;;;;;;;;;;;;22.98;45.30;101390.25;5046839;28;20019;-71
2023/08/09 06:08:35;;;;;;;;;;;;;;;22.99;45.16;101392.75;5046444;28;19961;-72
2023/08/09 06:11:00;;;;;;;;;;;;;;;22.79;44.99;101371.22;5050787;28;20554;-72
2023/08/09 06:13:26;;;;;;;;;;;;;;;22.92;45.07;101395.31;5051794;28;19950;-72
2023/08/09 06:15:51;;;;;;;;;;;;;;;22.95;44.92;101404.75;5046953;28;19933;-71
2023/08/09 06:18:16;;;;;;;;;;;;;;;22.96;44.90;101409.03;5051158;28;20053;-71
2023/08/09 06:20:42;;;;;;;;;;;;;;;22.97;44.73;101408.03;5050918;28;20390;-70
2023/08/09 06:23:08;;;;;;;;;;;;;;;22.96;44.82;101411.69;5051928;28;19947;-71
2023/08/09 06:25:33;;;;;;;;;;;;;;;22.91;44.82;101404.28;5047702;28;20422;-71
2023/08/09 06:27:59;;;;;;;;;;;;;;;22.91;45.14;101406.13;5056282;28;19987;-71
2023/08/09 06:30:24;;;;;;;;;;;;;;;22.91;45.52;101408.78;5050306;28;19940;-71
2023/08/09 06:32:50;;;;;;;;;;;;;;;22.90;45.14;101405.31;5051492;28;20752;-71
2023/08/09 06:35:15;;;;;;;;;;;;;;;22.86;45.39;101411.19;5045427;28;20029;-71
2023/08/09 06:37:40;;;;;;;;;;;;;;;;;;5050810;28;20037;-71
2023/08/09 06:40:09;;;;;;;;;;;;;;;22.78;44.94;101406.75;5048694;28;20058;-71
2023/08/09 06:42:34;;;;;;;;;;;;;;;22.80;45.31;101419.84;5052177;28;19938;-71
2023/08/09 06:45:02;;;;;;;;;;;;;;;22.80;45.21;101415.38;5084003;27;20021;-70
2023/08/09 06:47:27;;;;;;;;;;;;;;;;;;5053846;28;19956;-70
2023/08/09 06:49:53;;;;;;;;;;;;;;;22.80;45.41;101419.84;5049341;28;20373;-71
2023/08/09 06:52:18;;;;;;;;;;;;;;;22.79;45.83;101431.47;5046207;28;19998;-70
2023/08/09 06:54:43;;;;;;;;;;;;;;;22.84;45.84;101426.47;5055094;28;19981;-70
2023/08/09 06:57:09;;;;;;;;;;;;;;;22.86;45.45;101422.63;5046493;28;19954;-70
2023/08/09 06:59:34;;;;;;;;;;;;;;;22.88;45.75;101433.88;5052812;28;19932;-70
2023/08/09 07:01:59;;;;;;;;;;;;;;;22.89;45.90;101435.53;5052492;28;20024;-70
2023/08/09 07:04:26;;;;;;;;;;;;;;;22.94;45.46;101434.13;5050175;28;20069;-71
2023/08/09 07:06:52;;;;;;;;;;;;;;;22.99;45.61;101440.56;5040993;28;19968;-71
2023/08/09 07:09:18;;;;;;;;;;;;;;;23.00;45.76;101438.72;5047399;28;20042;-71
2023/08/09 07:11:44;;;;;;;;;;;;;;;23.02;45.79;101442.84;5049997;28;20035;-71
2023/08/09 07:14:10;;;;;;;;;;;;;;;23.05;45.73;101444.31;5053915;28;19929;-71
2023/08/09 07:16:35;;;;;;;;;;;;;;;23.03;46.03;101441.00;5056109;28;20271;-71
2023/08/09 07:19:01;;;;;;;;;;;;;;;23.05;45.79;101437.16;5054822;28;19935;-72
2023/08/09 07:21:28;;;;;;;;;;;;;;;23.07;45.85;101448.41;5054943;28;19992;-72
2023/08/09 07:23:53;;;;;;;;;;;;;;;23.01;45.94;101446.50;5053224;28;20370;-71
2023/08/09 07:26:18;;;;;;;;;;;;;;;22.85;46.21;101447.53;5056047;28;19929;-72
2023/08/09 07:28:44;;;;;;;;;;;;;;;22.85;46.17;101442.22;5051234;28;19963;-72
2023/08/09 07:31:20;;;;;;;;;;;;;;;22.87;46.49;101450.81;5049343;28;20068;-71
2023/08/09 07:33:46;;;;;;;;;;;;;;;22.86;46.46;101448.34;5057579;28;20578;-72
2023/08/09 07:36:11;;;;;;;;;;;;;;;22.87;46.52;101439.38;5058411;28;19944;-72
2023/08/09 07:38:37;;;;;;;;;;;;;;;22.91;46.20;101446.78;5057593;28;20383;-71
2023/08/09 07:41:03;;;;;;;;;;;;;;;22.91;46.68;101446.78;5058427;28;19934;-72
2023/08/09 07:43:28;;;;;;;;;;;;;;;22.95;46.90;101447.22;5053733;28;19987;-72
2023/08/09 07:45:54;;;;;;;;;;;;;;;22.91;46.86;101460.06;5052782;28;20008;-69
2023/08/09 07:48:19;;;;;;;;;;;;;;;22.99;46.20;101453.84;5037384;28;19944;-69
2023/08/09 07:50:45;;;;;;;;;;;;;;;22.96;46.33;101450.72;5059809;28;19925;-69
2023/08/09 07:53:12;;;;;;;;;;;;;;;23.03;45.90;101456.94;5058538;28;20069;-69
2023/08/09 07:55:38;;;;;;;;;;;;;;;23.08;45.77;101455.38;5054695;28;19944;-69
2023/08/09 07:58:04;;;;;;;;;;;;;;;23.10;46.44;101468.47;5052327;28;20310;-69
2023/08/09 08:00:30;;;;;;;;;;;;;;;23.12;45.88;101461.94;5055752;28;20364;-69
2023/08/09 08:02:55;;;;;;;;;;;;;;;23.16;45.37;101470.38;5051616;28;20387;-69
2023/08/09 08:05:21;;;;;;;;;;;;;;;23.13;45.97;101455.63;5046655;28;19931;-70
2023/08/09 08:07:46;;;;;;;;;;;;;;;23.21;45.98;101474.13;5048432;28;20569;-69
2023/08/09 08:10:15;;;;;;;;;;;;;;;23.28;45.46;101479.50;5047091;28;19962;-69
2023/08/09 08:12:42;;;;;;;;;;;;;;;23.33;45.58;101476.28;5046879;28;20080;-69
2023/08/09 08:15:08;;;;;;;;;;;;;;;23.33;45.58;101478.94;5054245;28;19940;-69
2023/08/09 08:17:33;;;;;;;;;;;;;;;23.32;45.63;101495.91;5051836;28;19938;-69
2023/08/09 08:19:59;;;;;;;;;;;;;;;23.34;45.32;101489.41;5052974;28;19941;-69
2023/08/09 08:22:24;;;;;;;;;;;;;;;23.33;44.97;101484.25;5049726;28;19982;-69
2023/08/09 08:24:51;;;;;;;;;;;;;;;23.34;45.33;101489.41;5052542;28;19948;-69
2023/08/09 08:27:16;;;;;;;;;;;;;;;23.33;45.34;101485.09;5048103;28;20310;-70
2023/08/09 08:29:41;;;;;;;;;;;;;;;23.36;45.12;101486.56;5052400;28;19935;-69
2023/08/09 08:32:09;;;;;;;;;;;;;;;23.34;44.93;101501.84;5057571;28;19959;-70
2023/08/09 08:34:34;;;;;;;;;;;;;;;23.32;44.96;101499.38;5051875;28;19939;-69
2023/08/09 08:37:00;;;;;;;;;;;;;;;23.33;44.93;101501.03;5051629;28;19984;-70
2023/08/09 08:39:28;;;;;;;;;;;;;;;23.34;44.76;101510.69;5055632;28;19932;-70
2023/08/09 08:41:54;;;;;;;;;;;;;;;23.35;44.72;101511.50;5052836;28;19972;-70
2023/08/09 08:44:23;;;;;;;;;;;;;;;23.37;44.82;101515.63;5049879;28;20049;-69
2023/08/09 08:46:49;;;;;;;;;;;;;;;23.42;44.35;101515.88;5054276;28;19964;-70
2023/08/09 08:49:17;;;;;;;;;;;;;;;23.40;44.50;101515.25;5050210;28;19951;-69
2023/08/09 08:51:43;;;;;;;;;;;;;;;23.46;44.03;101514.47;5048456;28;19931;-69
2023/08/09 08:54:10;;;;;;;;;;;;;;;23.48;44.12;101519.59;5050369;28;20035;-69
2023/08/09 08:56:35;;;;;;;;;;;;;;;23.44;43.96;101516.50;5057223;28;20414;-69
2023/08/09 08:59:01;;;;;;;;;;;;;;;23.46;43.84;101522.44;5055235;28;19930;-69
2023/08/09 09:01:27;;;;;;;;;;;;;;;23.45;44.23;101512.84;5056096;28;19927;-70
2023/08/09 09:03:52;;;;;;;;;;;;;;;23.44;44.20;101526.31;5050461;28;20030;-69
2023/08/09 09:06:18;;;;;;;;;;;;;;;23.45;43.66;101522.66;5056072;28;20025;-69
2023/08/09 09:08:44;;;;;;;;;;;;;;;23.41;43.92;101530.16;5054999;28;20023;-69
2023/08/09 09:11:19;;;;;;;;;;;;;;;23.44;43.84;101526.31;5061119;28;19934;-69
2023/08/09 09:13:48;;;;;;;;;;;;;;;23.45;43.86;101528.78;5050056;28;20028;-68
2023/08/09 09:16:14;;;;;;;;;;;;;;;23.42;44.09;101529.16;5047837;28;20391;-69
2023/08/09 09:18:45;;;;;;;;;;;;;;;23.44;43.84;101531.63;5059912;28;19962;-69
2023/08/09 09:21:10;;;;;;;;;;;;;;;23.49;43.74;101531.88;5056959;28;19932;-69
2023/08/09 09:23:36;;;;;;;;;;;;;;;23.51;43.58;101527.19;5065992;28;19998;-69
2023/08/09 09:26:08;;;;;;;;;;;;;;;23.51;43.78;101514.72;5056355;28;19944;-69
2023/08/09 09:28:41;;;;;;;;;;;;;;;23.51;43.51;101527.19;5095055;27;19937;-69
2023/08/09 09:31:10;;;;;;;;;;;;;;;23.56;43.33;101529.31;5049634;28;19935;-69
2023/08/09 09:33:36;;;;;;;;;;;;;;;23.56;43.39;101527.47;5047579;28;19951;-69
2023/08/09 09:36:02;;;;;;;;;;;;;;;23.55;43.33;101517.03;5050523;28;20006;-69
2023/08/09 09:38:28;;;;;;;;;;;;;;;23.50;43.75;101522.91;5054200;28;20831;-69
2023/08/09 09:40:56;;;;;;;;;;;;;;;23.52;43.44;101535.00;5065013;28;19964;-69
2023/08/09 09:43:22;;;;;;;;;;;;;;;23.55;43.46;101525.03;5057579;28;19933;-69
2023/08/09 09:45:52;;;;;;;;;;;;;;;23.54;43.24;101534.81;5049918;28;19958;-69
2023/08/09 09:48:17;;;;;;;;;;;;;;;23.57;43.39;101528.34;5067264;28;19934;-69
2023/08/09 09:50:43;;;;;;;;;;;;;;;23.60;43.13;101528.78;5063164;28;19930;-69
2023/08/09 09:53:15;;;;;;;;;;;;;;;23.61;43.10;101524.28;5054715;28;20451;-69
2023/08/09 09:55:41;;;;;;;;;;;;;;;23.60;43.26;101528.78;5058756;28;19954;-69
2023/08/09 09:58:07;;;;;;;;;;;;;;;23.58;43.30;101535.31;5055853;28;21307;-69
2023/08/09 10:00:32;;;;;;;;;;;;;;;23.53;43.49;101535.84;5056388;28;19934;-69
2023/08/09 10:03:01;;;;;;;;;;;;;;;23.60;43.53;101536.75;5048150;28;20007;-69
2023/08/09 10:05:28;;;;;;;;;;;;;;;23.57;43.40;101531.81;5058614;28;19931;-69
2023/08/09 10:07:55;;;;;;;;;;;;;;;23.64;43.43;101530.03;5051550;28;20475;-69
2023/08/09 10:10:21;;;;;;;;;;;;;;;23.63;43.16;101535.56;5056771;28;20037;-69
2023/08/09 10:12:47;;;;;;;;;;;;;;;23.61;43.37;101537.59;5047504;28;19946;-71
2023/08/09 10:15:15;;;;;;;;;;;;;;;23.64;43.25;101534.53;5050686;28;19942;-70
2023/08/09 10:17:41;;;;;;;;;;;;;;;23.71;43.30;101528.31;5047465;28;19938;-71
2023/08/09 10:20:08;;;;;;;;;;;;;;;23.72;43.51;101534.44;5053628;28;20616;-69
2023/08/09 10:22:34;;;;;;;;;;;;;;;23.71;43.74;101543.44;5049872;28;20004;-69
2023/08/09 10:24:59;;;;;;;;;;;;;;;23.71;43.61;101552.22;5051689;28;19932;-69
2023/08/09 10:27:44;;;;;;;;;;;;;;;23.68;43.51;101543.78;5049741;28;20041;-69
2023/08/09 10:30:13;;;;;;;;;;;;;;;23.68;43.25;101549.94;5058453;28;20368;-69
2023/08/09 10:32:49;;;;;;;;;;;;;;;23.70;43.30;101552.44;5063339;28;19954;-69
2023/08/09 10:35:38;;;;;;;;;;;;;;;23.66;43.10;101549.28;5060565;28;19942;-69
2023/08/09 10:38:06;;;;;;;;;;;;;;;23.52;43.13;101531.53;5054842;28;20396;-69
2023/08/09 10:40:34;;;;;;;;;;;;;;;23.62;43.00;101552.53;5063720;28;20438;-69
2023/08/09 10:43:00;;;;;;;;;;;;;;;23.62;43.24;101553.34;5059782;28;19925;-69
2023/08/09 10:45:25;;;;;;;;;;;;;;;23.63;43.07;101562.16;5055250;28;19955;-69
2023/08/09 10:47:51;;;;;;;;;;;;;;;23.66;42.85;101567.91;5053397;28;19944;-69
2023/08/09 10:50:18;;;;;;;;;;;;;;;23.64;42.94;101567.28;5046025;28;19940;-69
2023/08/09 10:52:48;;;;;;;;;;;;;;;23.64;42.86;101558.47;5047066;28;19994;-68
2023/08/09 10:55:21;;;;;;;;;;;;;;;23.67;42.85;101560.75;5058628;28;19947;-69
2023/08/09 10:57:50;;;;;;;;;;;;;;;23.64;43.01;101559.28;5057001;28;19924;-69
2023/08/09 11:00:16;;;;;;;;;;;;;;;23.61;43.16;101566.81;5049682;28;19932;-69
2023/08/09 11:02:59;;;;;;;;;;;;;;;23.69;43.01;101569.34;5056591;28;19943;-69
2023/08/09 11:05:27;;;;;;;;;;;;;;;23.64;42.80;101569.94;5055232;28;19934;-69
2023/08/09 11:07:56;;;;;;;;;;;;;;;23.62;43.01;101566.63;5055017;28;19940;-69
2023/08/09 11:10:30;;;;;;;;;;;;;;;23.49;42.84;101542.50;5060916;28;19935;-69
2023/08/09 11:12:55;;;;;;;;;;;;;;;23.65;42.86;101568.91;5057029;28;19955;-69
2023/08/09 11:15:20;;;;;;;;;;;;;;;23.67;42.99;101577.53;5061073;28;19931;-69
2023/08/09 11:17:47;;;;;;;;;;;;;;;23.67;42.76;101577.53;5057366;28;19965;-68
2023/08/09 11:20:13;;;;;;;;;;;;;;;23.68;42.92;101588.97;5051767;28;19943;-69
2023/08/09 11:22:39;;;;;;;;;;;;;;;23.67;43.08;101584.69;5047437;28;19945;-68
2023/08/09 11:25:06;;;;;;;;;;;;;;;23.68;42.96;101576.50;5050560;28;19930;-68
2023/08/09 11:27:32;;;;;;;;;;;;;;;23.63;43.08;101586.91;5068497;28;19938;-68
2023/08/09 11:29:57;;;;;;;;;;;;;;;23.61;43.04;101588.09;5051261;28;19931;-69
2023/08/09 11:32:26;;;;;;;;;;;;;;;23.58;43.00;101586.63;5050830;28;19961;-69
2023/08/09 11:34:52;;;;;;;;;;;;;;;23.58;42.81;101591.13;5057337;28;20389;-68
2023/08/09 11:37:17;;;;;;;;;;;;;;;23.52;43.21;101587.34;5054364;28;19944;-68
2023/08/09 11:39:42;;;;;;;;;;;;;;;23.55;43.12;101599.44;5054290;28;20420;-68
2023/08/09 11:42:08;;;;;;;;;;;;;;;23.54;43.14;101598.63;5048324;28;20609;-69
2023/08/09 11:44:38;;;;;;;;;;;;;;;23.51;43.26;101597.13;5049014;28;19960;-69
2023/08/09 11:47:04;;;;;;;;;;;;;;;23.57;43.16;101598.28;5054465;28;19942;-68
2023/08/09 11:49:30;;;;;;;;;;;;;;;23.60;42.96;101594.44;5048053;28;19934;-69
2023/08/09 11:51:56;;;;;;;;;;;;;;;23.61;42.84;101604.03;5050280;28;19990;-68
2023/08/09 11:54:24;;;;;;;;;;;;;;;23.60;43.00;101605.06;5057567;28;20415;-68
2023/08/09 11:56:51;;;;;;;;;;;;;;;23.58;42.85;101610.56;5056431;28;19992;-68
2023/08/09 11:59:17;;;;;;;;;;;;;;;23.44;42.87;101596.25;5058318;28;19926;-68
2023/08/09 12:01:46;;;;;;;;;;;;;;;23.57;43.19;101616.91;5064525;28;19977;-68
2023/08/09 12:04:13;;;;;;;;;;;;;;;23.58;43.10;101607.91;5059334;28;20302;-69
2023/08/09 12:06:41;;;;;;;;;;;;;;;23.63;42.85;101610.81;5057169;28;19926;-68
2023/08/09 12:09:26;;;;;;;;;;;;;;;23.62;42.87;101619.00;5061127;28;19961;-68
2023/08/09 12:11:51;;;;;;;;;;;;;;;23.62;43.12;101622.47;5091761;27;19987;-68
2023/08/09 12:14:16;;;;;;;;;;;;;;;23.64;43.11;101614.31;5054617;28;20040;-68
2023/08/09 12:16:42;;;;;;;;;;;;;;;23.60;43.14;101616.53;5056459;28;19984;-68
2023/08/09 12:19:07;;;;;;;;;;;;;;;23.60;43.43;101615.69;5056026;28;19939;-68
2023/08/09 12:21:32;;;;;;;;;;;;;;;23.61;43.07;101617.34;5058742;28;19944;-68
2023/08/09 12:23:57;;;;;;;;;;;;;;;23.62;43.38;101624.31;5066377;28;19933;-68
2023/08/09 12:26:23;;;;;;;;;;;;;;;23.63;43.29;101620.63;5051815;28;19942;-68
2023/08/09 12:28:48;;;;;;;;;;;;;;;23.65;43.30;101631.91;5064914;28;20037;-68
2023/08/09 12:31:14;;;;;;;;;;;;;;;23.63;43.30;101636.59;5055472;28;20175;-68
2023/08/09 12:33:39;;;;;;;;;;;;;;;23.63;43.24;101625.94;5054844;28;19944;-69